createdAt,value
2019-01-28T00:02:53.276Z,68.00
2019-01-28T00:07:57.316Z,66.70
2019-01-28T00:13:01.382Z,67.95
2019-01-28T00:18:05.478Z,59.58
2019-01-28T00:23:09.564Z,61.30
2019-01-28T00:28:13.623Z,58.63
2019-01-28T00:33:17.710Z,59.77
2019-01-28T00:38:21.778Z,67.72
2019-01-28T00:43:25.929Z,64.37
2019-01-28T00:48:29.958Z,57.93
2019-01-28T00:53:34.027Z,70.87
2019-01-28T00:58:38.098Z,52.87
2019-01-28T01:03:42.176Z,69.92
2019-01-28T01:08:46.250Z,57.50
2019-01-28T01:13:50.319Z,57.13
2019-01-28T01:18:54.393Z,60.60
2019-01-28T01:23:58.460Z,44.53
2019-01-28T01:29:02.529Z,64.77
2019-01-28T01:34:06.589Z,61.37
2019-01-28T01:39:10.650Z,61.60
2019-01-28T01:44:14.694Z,61.33
2019-01-28T01:49:18.766Z,62.00
2019-01-28T01:54:22.836Z,51.83
2019-01-28T01:59:26.890Z,55.85
2019-01-28T02:04:30.940Z,60.00
2019-01-28T02:09:35.008Z,63.90
2019-01-28T02:14:39.041Z,45.30
2019-01-28T02:19:43.870Z,74.72
2019-01-28T02:24:47.927Z,67.10
2019-01-28T02:29:52.026Z,68.02
2019-01-28T02:34:56.105Z,52.80
2019-01-28T02:40:00.268Z,60.90
2019-01-28T02:45:05.870Z,64.50
2019-01-28T02:50:11.308Z,61.13
2019-01-28T02:55:15.460Z,70.53
2019-01-28T03:00:20.482Z,71.07
2019-01-28T03:05:24.561Z,48.63
2019-01-28T03:10:28.638Z,72.95
2019-01-28T03:15:32.702Z,60.03
2019-01-28T03:20:36.779Z,64.27
2019-01-28T03:25:41.252Z,66.85
2019-01-28T03:30:45.334Z,62.62
2019-01-28T03:35:49.397Z,62.77
2019-01-28T03:40:53.454Z,62.93
2019-01-28T03:45:57.518Z,59.60
2019-01-28T03:51:01.586Z,58.92
2019-01-28T03:56:05.671Z,69.37
2019-01-28T04:01:09.753Z,64.87
2019-01-28T04:06:13.801Z,59.00
2019-01-28T04:11:17.839Z,65.45
2019-01-28T04:16:21.941Z,67.03
2019-01-28T04:21:26.141Z,61.95
2019-01-28T04:26:30.270Z,52.27
2019-01-28T04:31:34.347Z,58.68
2019-01-28T04:36:38.422Z,58.73
2019-01-28T04:41:42.488Z,62.50
2019-01-28T04:46:46.878Z,65.78
2019-01-28T04:51:50.948Z,66.97
2019-01-28T04:56:55.026Z,59.43
2019-01-28T05:01:59.095Z,64.43
2019-01-28T05:07:03.189Z,73.37
2019-01-28T05:12:07.235Z,67.22
2019-01-28T05:17:11.321Z,62.20
2019-01-28T05:22:15.395Z,64.40
2019-01-28T05:27:19.460Z,66.00
2019-01-28T05:32:23.538Z,66.63
2019-01-28T05:37:27.578Z,59.47
2019-01-28T05:42:33.049Z,70.08
2019-01-28T05:47:37.770Z,58.10
2019-01-28T05:52:43.406Z,61.28
2019-01-28T05:57:47.571Z,62.48
2019-01-28T06:02:51.640Z,62.63
2019-01-28T06:07:55.715Z,52.33
2019-01-28T06:12:59.840Z,49.07
2019-01-28T06:18:03.910Z,46.37
2019-01-28T06:23:08.372Z,44.10
2019-01-28T06:28:12.642Z,47.67
2019-01-28T06:33:16.689Z,43.63
2019-01-28T06:38:20.739Z,44.50
2019-01-28T06:43:24.808Z,56.28
2019-01-28T06:48:28.866Z,56.25
2019-01-28T06:53:32.924Z,54.50
2019-01-28T06:58:36.976Z,46.42
2019-01-28T07:03:41.049Z,48.08
2019-01-28T07:08:45.089Z,44.58
2019-01-28T07:13:49.144Z,41.28
2019-01-28T07:18:53.301Z,50.67
2019-01-28T07:23:57.356Z,46.28
2019-01-28T07:29:01.482Z,28.92
2019-01-28T07:34:06.836Z,46.40
2019-01-28T07:39:10.950Z,45.40
2019-01-28T07:44:15.114Z,45.80
2019-01-28T07:49:20.037Z,44.23
2019-01-28T07:54:24.104Z,39.95
2019-01-28T07:59:28.161Z,37.20
2019-01-28T08:04:32.238Z,42.03
2019-01-28T08:09:36.309Z,36.95
2019-01-28T08:14:40.364Z,41.73
2019-01-28T08:19:44.437Z,43.60
2019-01-28T08:24:48.518Z,38.23
2019-01-28T08:29:52.583Z,38.20
2019-01-28T08:34:56.639Z,39.83
2019-01-28T08:40:05.280Z,40.20
2019-01-28T08:45:11.678Z,35.83
2019-01-28T08:50:17.358Z,35.75
2019-01-28T08:55:22.578Z,37.55
2019-01-28T09:00:36.621Z,34.25
2019-01-28T09:05:40.699Z,40.80
2019-01-28T09:10:44.782Z,45.10
2019-01-28T09:15:48.828Z,34.75
2019-01-28T09:20:52.889Z,42.08
2019-01-28T09:25:56.963Z,39.48
2019-01-28T09:31:01.027Z,39.33
2019-01-28T09:36:06.561Z,34.33
2019-01-28T09:41:10.664Z,39.53
2019-01-28T09:46:14.724Z,41.80
2019-01-28T09:51:19.268Z,43.23
2019-01-28T09:56:23.318Z,41.30
2019-01-28T10:01:27.379Z,41.53
2019-01-28T10:06:31.448Z,43.08
2019-01-28T10:11:35.516Z,47.73
2019-01-28T10:16:39.658Z,45.55
2019-01-28T10:21:43.722Z,47.13
2019-01-28T10:26:47.915Z,48.45
2019-01-28T10:31:52.076Z,46.95
2019-01-28T10:36:56.136Z,49.95
2019-01-28T10:42:00.195Z,48.28
2019-01-28T10:47:04.267Z,56.08
2019-01-28T10:52:08.334Z,51.02
2019-01-28T10:57:12.621Z,49.60
2019-01-28T11:02:16.914Z,51.68
2019-01-28T11:07:21.051Z,56.10
2019-01-28T11:12:25.172Z,48.38
2019-01-28T11:17:29.296Z,35.20
2019-01-28T11:22:33.386Z,42.62
2019-01-28T11:27:37.680Z,39.55
2019-01-28T11:32:41.793Z,46.95
2019-01-28T11:37:45.918Z,43.65
2019-01-28T11:42:50.131Z,48.98
2019-01-28T11:47:54.305Z,46.60
2019-01-28T11:52:59.211Z,50.85
2019-01-28T11:58:03.306Z,52.85
2019-01-28T12:03:07.419Z,49.35
2019-01-28T12:08:11.564Z,52.10
2019-01-28T12:13:15.604Z,54.33
2019-01-28T12:18:19.663Z,53.90
2019-01-28T12:23:23.976Z,60.25
2019-01-28T12:28:28.040Z,68.10
2019-01-28T12:33:32.123Z,61.58
2019-01-28T12:38:36.267Z,61.23
2019-01-28T12:43:40.342Z,56.20
2019-01-28T12:48:44.420Z,57.20
2019-01-28T12:53:49.937Z,58.28
2019-01-28T12:58:53.976Z,60.08
2019-01-28T13:03:58.041Z,65.20
2019-01-28T13:09:02.184Z,57.62
2019-01-28T13:14:07.857Z,61.30
2019-01-28T13:19:11.927Z,51.18
2019-01-28T13:24:15.998Z,58.70
2019-01-28T13:29:20.130Z,60.88
2019-01-28T13:34:24.352Z,68.42
2019-01-28T13:39:28.502Z,63.08
2019-01-28T13:44:33.552Z,68.30
2019-01-28T13:49:38.269Z,77.27
2019-01-28T13:54:42.705Z,72.35
2019-01-28T13:59:47.641Z,72.87
2019-01-28T14:04:51.719Z,76.12
2019-01-28T14:09:55.794Z,68.40
2019-01-28T14:14:59.869Z,72.47
2019-01-28T14:20:05.558Z,67.73
2019-01-28T14:25:10.903Z,57.08
2019-01-28T14:30:19.618Z,66.28
2019-01-28T14:35:23.738Z,69.10
2019-01-28T14:40:27.887Z,63.60
2019-01-28T14:45:31.952Z,65.42
2019-01-28T14:50:36.669Z,71.00
2019-01-28T14:55:41.966Z,63.85
2019-01-28T15:00:46.474Z,68.05
2019-01-28T15:05:50.567Z,59.65
2019-01-28T15:10:54.717Z,68.78
2019-01-28T15:15:58.779Z,64.30
2019-01-28T15:21:02.972Z,56.60
2019-01-28T15:26:09.539Z,75.57
2019-01-28T15:31:13.602Z,78.42
2019-01-28T15:36:17.666Z,80.70
2019-01-28T15:41:21.810Z,81.28
2019-01-28T15:46:25.877Z,94.65
2019-01-28T15:51:29.958Z,93.62
2019-01-28T15:56:34.011Z,80.05
2019-01-28T16:01:38.132Z,86.40
2019-01-28T16:06:42.454Z,82.88
2019-01-28T16:11:47.682Z,89.25
2019-01-28T16:16:51.728Z,87.33
2019-01-28T16:21:55.806Z,91.40
2019-01-28T16:27:01.294Z,91.55
2019-01-28T16:32:05.423Z,91.33
2019-01-28T16:37:09.504Z,90.65
2019-01-28T16:42:13.580Z,91.17
2019-01-28T16:47:17.654Z,90.90
2019-01-28T16:52:21.725Z,94.67
2019-01-28T16:57:26.751Z,90.67
2019-01-28T17:02:30.793Z,85.53
2019-01-28T17:07:34.828Z,92.80
2019-01-28T17:12:38.894Z,91.22
2019-01-28T17:17:42.970Z,93.70
2019-01-28T17:22:47.031Z,97.97
2019-01-28T17:27:51.083Z,97.92
2019-01-28T17:32:55.288Z,102.97
2019-01-28T17:37:59.363Z,98.27
2019-01-28T17:43:12.674Z,85.40
2019-01-28T17:48:18.346Z,81.30
2019-01-28T17:53:22.419Z,86.12
2019-01-28T17:58:26.460Z,83.15
2019-01-28T18:03:30.512Z,84.62
2019-01-28T18:08:34.594Z,79.87
2019-01-28T18:13:38.657Z,90.57
2019-01-28T18:18:42.727Z,85.87
2019-01-28T18:23:47.033Z,73.20
2019-01-28T18:28:51.141Z,80.35
2019-01-28T18:33:55.278Z,70.28
2019-01-28T18:38:59.393Z,73.62
2019-01-28T18:44:03.700Z,73.20
2019-01-28T18:49:07.745Z,71.95
2019-01-28T18:54:11.813Z,64.72
2019-01-28T18:59:15.952Z,73.80
2019-01-28T19:04:20.278Z,66.30
2019-01-28T19:09:25.990Z,65.52
2019-01-28T19:14:34.663Z,67.22
2019-01-28T19:19:56.516Z,64.95
2019-01-28T19:25:00.616Z,58.02
2019-01-28T19:30:09.368Z,56.28
2019-01-28T19:35:13.516Z,57.23
2019-01-28T19:40:17.559Z,55.25
2019-01-28T19:45:23.335Z,64.67
2019-01-28T19:50:27.477Z,68.83
2019-01-28T19:55:31.948Z,59.45
2019-01-28T20:00:36.500Z,71.33
2019-01-28T20:05:40.576Z,75.57
2019-01-28T20:10:44.643Z,69.77
2019-01-28T20:15:48.723Z,62.38
2019-01-28T20:20:52.802Z,56.00
2019-01-28T20:25:56.881Z,47.43
2019-01-28T20:31:01.299Z,44.35
2019-01-28T20:36:06.560Z,45.17
2019-01-28T20:41:10.644Z,47.17
2019-01-28T20:46:14.789Z,52.93
2019-01-28T20:51:19.006Z,46.28
2019-01-28T20:56:23.094Z,43.90
2019-01-28T21:01:27.161Z,58.17
2019-01-28T21:06:31.303Z,38.00
2019-01-28T21:11:41.930Z,38.90
2019-01-28T21:16:46.982Z,33.13
2019-01-28T21:21:51.218Z,42.17
2019-01-28T21:26:55.263Z,46.77
2019-01-28T21:31:59.346Z,46.05
2019-01-28T21:37:05.062Z,49.63
2019-01-28T21:42:09.230Z,47.45
2019-01-28T21:47:14.269Z,39.98
2019-01-28T21:52:18.335Z,51.68
2019-01-28T21:57:22.495Z,56.98
2019-01-28T22:02:26.668Z,60.45
2019-01-28T22:07:30.734Z,59.45
2019-01-28T22:12:34.805Z,71.65
2019-01-28T22:17:38.863Z,66.40
2019-01-28T22:22:43.036Z,65.70
2019-01-28T22:27:47.145Z,55.52
2019-01-28T22:32:51.349Z,53.15
2019-01-28T22:37:55.554Z,60.12
2019-01-28T22:42:59.672Z,58.35
2019-01-28T22:48:03.760Z,70.00
2019-01-28T22:53:07.903Z,77.15
2019-01-28T22:58:12.326Z,67.65
2019-01-28T23:03:17.000Z,58.08
2019-01-28T23:08:21.059Z,49.33
2019-01-28T23:13:25.126Z,58.28
2019-01-28T23:18:29.234Z,70.17
2019-01-28T23:23:33.358Z,69.80
2019-01-28T23:28:37.504Z,73.42
2019-01-28T23:33:41.585Z,86.17
2019-01-28T23:38:45.646Z,74.53
2019-01-28T23:43:49.708Z,70.37
2019-01-28T23:48:54.865Z,62.53
2019-01-28T23:53:59.826Z,65.85
2019-01-28T23:59:03.923Z,66.60
